IBE6845 SAEZ-LEMD
Flight info
| Callsign | IBE6845 |
|---|---|
| Flight time | N/A |
| Altitude | 35000 |
| Route | DORVO1A DORVO UN857 KOVGO DCT MOLSU UN857 DAGEL/N0461F370 UN857 DELAX/N0456F390 UN857 OPADU DCT GUNET N857 DEREV/N0446F400 N857 LZR DCT OXACA DCT SOTUK |
| Aircraft | A343/H-SDE2E3FGHIJ4J5M1RWXY/LB1D1 |
Departure
| Time | 2026-05-06 00:53 |
|---|---|
| Airport | Ezeiza International Airport - Ministro Pistarini (SAEZ) |
Arrival
| Time | N/A |
|---|---|
| Airport | Adolfo Suárez Madrid–Barajas Airport (LEMD) |
| Time | Latitude | Longitude | Altitude | Speed | Heading |
|---|---|---|---|---|---|
| 2026-05-06 00:46 | -34.81643 | -58.53778 | 84 ft | 0 kts | 225° |
| 2026-05-06 00:49 | -34.81648 | -58.53785 | 79 ft | 4 kts | 225° |
| 2026-05-06 00:49 | -34.81683 | -58.53828 | 84 ft | 10 kts | 226° |
| 2026-05-06 00:49 | -34.81723 | -58.53880 | 84 ft | 14 kts | 227° |
| 2026-05-06 00:50 | -34.81779 | -58.53990 | 85 ft | 18 kts | 248° |
| 2026-05-06 00:50 | -34.81790 | -58.54153 | 84 ft | 21 kts | 278° |
| 2026-05-06 00:50 | -34.81767 | -58.54339 | 79 ft | 24 kts | 278° |
| 2026-05-06 00:50 | -34.81757 | -58.54434 | 83 ft | 6 kts | 276° |
| 2026-05-06 00:51 | -34.81754 | -58.54518 | 82 ft | 14 kts | 268° |
| 2026-05-06 00:51 | -34.81775 | -58.54663 | 82 ft | 21 kts | 262° |
| 2026-05-06 00:51 | -34.81759 | -58.54867 | 82 ft | 27 kts | 281° |
| 2026-05-06 00:51 | -34.81716 | -58.55114 | 82 ft | 32 kts | 282° |
| 2026-05-06 00:52 | -34.81726 | -58.55315 | 84 ft | 25 kts | 225° |
| 2026-05-06 00:52 | -34.81876 | -58.55321 | 86 ft | 15 kts | 171° |
| 2026-05-06 00:52 | -34.81922 | -58.55237 | 82 ft | 14 kts | 102° |
| 2026-05-06 00:52 | -34.81967 | -58.54974 | 87 ft | 56 kts | 101° |
| 2026-05-06 00:53 | -34.82090 | -58.54318 | 88 ft | 101 kts | 102° |
| 2026-05-06 00:53 | -34.82266 | -58.53332 | 88 ft | 139 kts | 101° |
| 2026-05-06 00:53 | -34.82503 | -58.52060 | 224 ft | 158 kts | 101° |
| 2026-05-06 00:53 | -34.82761 | -58.50790 | 687 ft | 155 kts | 105° |
| 2026-05-06 00:54 | -34.83405 | -58.49705 | 985 ft | 165 kts | 136° |
| 2026-05-06 00:54 | -34.84265 | -58.48698 | 1255 ft | 180 kts | 134° |
| 2026-05-06 00:54 | -34.85167 | -58.47542 | 1500 ft | 196 kts | 130° |
| 2026-05-06 00:54 | -34.86055 | -58.46184 | 1736 ft | 216 kts | 124° |
| 2026-05-06 00:55 | -34.86862 | -58.44542 | 2031 ft | 236 kts | 116° |
| 2026-05-06 00:55 | -34.87655 | -58.42710 | 2464 ft | 251 kts | 116° |
| 2026-05-06 00:55 | -34.88478 | -58.40796 | 3054 ft | 260 kts | 116° |
| 2026-05-06 00:55 | -34.89328 | -58.38798 | 3574 ft | 272 kts | 117° |
| 2026-05-06 00:56 | -34.90214 | -58.36759 | 4335 ft | 271 kts | 117° |
| 2026-05-06 00:56 | -34.90925 | -58.34652 | 5144 ft | 269 kts | 103° |
| 2026-05-06 00:56 | -34.91297 | -58.32392 | 5746 ft | 276 kts | 99° |
| 2026-05-06 00:56 | -34.91619 | -58.30053 | 6317 ft | 284 kts | 98° |
| 2026-05-06 00:57 | -34.91931 | -58.27683 | 6923 ft | 289 kts | 97° |
| 2026-05-06 00:57 | -34.92280 | -58.25263 | 7588 ft | 291 kts | 101° |
| 2026-05-06 00:57 | -34.92668 | -58.22828 | 8219 ft | 294 kts | 101° |
| 2026-05-06 00:57 | -34.93054 | -58.20364 | 8815 ft | 297 kts | 101° |
| 2026-05-06 00:58 | -34.93437 | -58.17870 | 9396 ft | 301 kts | 101° |
| 2026-05-06 00:58 | -34.93819 | -58.15347 | 9971 ft | 305 kts | 101° |
| 2026-05-06 00:58 | -34.94206 | -58.12764 | 10379 ft | 316 kts | 101° |